| time (UTC) | temp C | wind direction | speed KPH | gust KPH | rain 1hr cm | rain 24hr cm | rain mn cm | humidity % | barometer mb |
| 20260507080012 | 3 | 202 | 0.0 | 3.2 | 0.00 | 1.37 | 0.00 | 79 | 1012.4 |
| 20260507074524 | 3 | 202 | 3.2 | 6.4 | 0.00 | 1.50 | 0.00 | 80 | 1012.0 |
| 20260507073008 | 3 | 302 | 0.0 | 3.2 | 0.00 | 1.50 | 0.00 | 80 | 1012.0 |
| 20260507071504 | 5 | 302 | 0.0 | 4.8 | 0.00 | 1.50 | 0.00 | 79 | 1012.0 |
| 20260507070009 | 5 | 302 | 1.6 | 4.8 | 0.00 | 1.50 | 0.00 | 76 | 1011.9 |
| 20260507064601 | 5 | 302 | 4.8 | 6.4 | 0.00 | 1.50 | 0.00 | 76 | 1012.0 |
| 20260507063059 | 5 | 311 | 3.2 | 6.4 | 0.00 | 1.50 | 0.00 | 76 | 1012.2 |
| 20260507061557 | 5 | 311 | 4.8 | 11.3 | 0.00 | 1.50 | 0.00 | 76 | 1012.3 |
| 20260507060104 | 5 | 299 | 3.2 | 8.0 | 0.00 | 1.50 | 0.00 | 75 | 1012.4 |
| 20260507054556 | 6 | 314 | 4.8 | 9.7 | 0.00 | 1.52 | 0.00 | 74 | 1012.3 |
| 20260507053053 | 6 | 304 | 9.7 | 16.1 | 0.00 | 1.52 | 0.00 | 73 | 1012.4 |
| 20260507051549 | 6 | 280 | 11.3 | 19.3 | 0.00 | 1.52 | 0.00 | 73 | 1012.5 |
| 20260507050046 | 6 | 302 | 16.1 | 22.5 | 0.00 | 1.52 | 0.00 | 73 | 1012.6 |
| 20260507044546 | 6 | 307 | 14.5 | 20.9 | 0.00 | 1.52 | 0.00 | 74 | 1012.6 |
| 20260507043041 | 6 | 271 | 6.4 | 14.5 | 0.00 | 1.52 | 0.00 | 76 | 1012.8 |
| 20260507041538 | 6 | 283 | 9.7 | 17.7 | 0.00 | 1.52 | 0.00 | 77 | 1012.4 |
| 20260507040035 | 6 | 284 | 9.7 | 19.3 | 0.00 | 1.52 | 0.00 | 79 | 1012.3 |
| 20260507034550 | 6 | 284 | 6.4 | 12.9 | 0.00 | 1.52 | 1.52 | 80 | 1011.8 |
| 20260507033038 | 6 | 304 | 11.3 | 17.7 | 0.00 | 1.52 | 1.52 | 80 | 1011.8 |
| 20260507031529 | 6 | 295 | 12.9 | 19.3 | 0.00 | 1.52 | 1.52 | 80 | 1011.8 |
| 20260507030029 | 7 | 289 | 12.9 | 20.9 | 0.00 | 1.52 | 1.52 | 80 | 1011.6 |
| 20260507024545 | 7 | 306 | 11.3 | 22.5 | 0.00 | 1.60 | 1.52 | 81 | 1011.7 |
| 20260507023026 | 7 | 312 | 12.9 | 20.9 | 0.00 | 1.60 | 1.52 | 82 | 1011.4 |
| 20260507021524 | 7 | 309 | 16.1 | 22.5 | 0.00 | 1.60 | 1.52 | 82 | 1011.5 |
| 20260507020024 | 8 | 286 | 12.9 | 17.7 | 0.00 | 1.60 | 1.52 | 85 | 1011.6 |
| 20260507014534 | 7 | 286 | 3.2 | 12.9 | 0.00 | 1.63 | 1.52 | 87 | 1011.3 |
| 20260507013022 | 7 | 315 | 4.8 | 8.0 | 0.00 | 1.63 | 1.52 | 87 | 1011.5 |
| 20260507011534 | 7 | 63 | 0.0 | 0.0 | 0.00 | 1.63 | 1.52 | 86 | 1011.5 |
| 20260507010019 | 7 | 63 | 0.0 | 0.0 | 0.00 | 1.63 | 1.52 | 86 | 1011.2 |
| 20260507004517 | 7 | 63 | 1.6 | 3.2 | 0.00 | 1.70 | 1.52 | 86 | 1011.1 |
| 20260507003018 | 7 | 63 | 1.6 | 3.2 | 0.00 | 1.70 | 1.52 | 85 | 1010.9 |
| 20260507001517 | 8 | 63 | 0.0 | 0.0 | 0.00 | 1.70 | 1.52 | 85 | 1010.8 |
| 20260507000014 | 8 | 63 | 0.0 | 4.8 | 0.00 | 1.70 | 1.52 | 84 | 1010.8 |
| 20260506234513 | 8 | 67 | 3.2 | 6.4 | 0.00 | 1.75 | 1.52 | 83 | 1010.5 |
| 20260506233012 | 8 | 70 | 1.6 | 6.4 | 0.00 | 1.75 | 1.52 | 82 | 1010.3 |
| 20260506231511 | 8 | 70 | 0.0 | 3.2 | 0.00 | 1.75 | 1.52 | 81 | 1010.5 |
| 20260506230109 | 8 | 70 | 1.6 | 4.8 | 0.00 | 1.75 | 1.52 | 81 | 1010.3 |
| 20260506224509 | 8 | 70 | 1.6 | 6.4 | 0.00 | 1.75 | 1.52 | 81 | 1010.0 |
| 20260506223008 | 8 | 70 | 4.8 | 8.0 | 0.00 | 1.75 | 1.52 | 81 | 1009.9 |
| 20260506221507 | 8 | 82 | 4.8 | 8.0 | 0.00 | 1.75 | 1.52 | 81 | 1009.7 |
| 20260506220007 | 8 | 54 | 3.2 | 6.4 | 0.00 | 1.75 | 1.52 | 81 | 1010.0 |
| 20260506214510 | 8 | 54 | 3.2 | 9.7 | 0.00 | 1.75 | 1.52 | 81 | 1010.0 |
| 20260506213004 | 8 | 92 | 3.2 | 6.4 | 0.00 | 1.75 | 1.52 | 80 | 1009.8 |
| 20260506211503 | 8 | 331 | 1.6 | 8.0 | 0.00 | 1.75 | 1.52 | 81 | 1009.8 |
| 20260506204616 | 8 | 300 | 9.7 | 14.5 | 0.00 | 1.78 | 1.52 | 82 | 1009.6 |
| 20260506203059 | 8 | 313 | 8.0 | 16.1 | 0.00 | 1.78 | 1.52 | 82 | 1009.5 |
| 20260506201600 | 8 | 331 | 8.0 | 16.1 | 0.00 | 1.78 | 1.52 | 82 | 1009.5 |
| 20260506200057 | 8 | 329 | 11.3 | 17.7 | 0.00 | 1.78 | 1.52 | 83 | 1009.3 |
| 20260506194556 | 8 | 35 | 4.8 | 19.3 | 0.00 | 1.78 | 1.52 | 83 | 1009.1 |
| 20260506193056 | 7 | 360 | 11.3 | 19.3 | 0.00 | 1.78 | 1.52 | 83 | 1008.9 |
| 20260506191557 | 7 | 336 | 6.4 | 12.9 | 0.00 | 1.78 | 1.52 | 84 | 1009.0 |
| 20260506190054 | 7 | 325 | 9.7 | 20.9 | 0.00 | 1.78 | 1.52 | 84 | 1009.0 |
| 20260506184554 | 7 | 340 | 14.5 | 22.5 | 0.00 | 1.78 | 1.52 | 85 | 1008.7 |
| 20260506183056 | 7 | 289 | 6.4 | 19.3 | 0.00 | 1.78 | 1.52 | 85 | 1008.7 |
| 20260506181552 | 7 | 297 | 9.7 | 17.7 | 0.00 | 1.78 | 1.52 | 83 | 1008.6 |
| 20260506180053 | 8 | 294 | 12.9 | 19.3 | 0.00 | 1.78 | 1.52 | 83 | 1008.7 |
| 20260506174559 | 8 | 317 | 11.3 | 17.7 | 0.00 | 1.80 | 1.52 | 84 | 1008.3 |
| 20260506173117 | 8 | 344 | 9.7 | 17.7 | 0.00 | 1.80 | 1.52 | 84 | 1008.0 |
| 20260506171550 | 8 | 338 | 8.0 | 17.7 | 0.00 | 1.80 | 1.52 | 85 | 1008.0 |
| 20260506170049 | 7 | 333 | 11.3 | 16.1 | 0.00 | 1.80 | 1.52 | 87 | 1007.7 |
| 20260506164547 | 7 | 11 | 8.0 | 12.9 | 0.00 | 1.80 | 1.52 | 90 | 1007.8 |
| 20260506163052 | 7 | 316 | 8.0 | 14.5 | 0.03 | 1.80 | 1.52 | 91 | 1007.6 |
| 20260506161547 | 7 | 15 | 8.0 | 14.5 | 0.05 | 1.80 | 1.52 | 91 | 1007.6 |
| 20260506160043 | 7 | 313 | 6.4 | 14.5 | 0.08 | 1.80 | 1.52 | 91 | 1007.7 |
| 20260506154544 | 7 | 5 | 6.4 | 9.7 | 0.08 | 1.80 | 1.52 | 91 | 1007.7 |
| 20260506153044 | 6 | 57 | 3.2 | 8.0 | 0.05 | 1.78 | 1.50 | 91 | 1007.8 |
| 20260506151538 | 6 | 55 | 4.8 | 9.7 | 0.05 | 1.75 | 1.45 | 91 | 1007.8 |
| 20260506150140 | 6 | 46 | 4.8 | 9.7 | 0.05 | 1.73 | 1.42 | 91 | 1007.6 |
| 20260506144555 | 6 | 47 | 4.8 | 11.3 | 0.05 | 1.73 | 1.42 | 90 | 1007.4 |
| 20260506143043 | 6 | 43 | 6.4 | 9.7 | 0.08 | 1.73 | 1.42 | 90 | 1007.3 |
| 20260506141533 | 5 | 21 | 6.4 | 14.5 | 0.08 | 1.70 | 1.42 | 90 | 1007.2 |
| 20260506140136 | 5 | 349 | 6.4 | 16.1 | 0.10 | 1.68 | 1.40 | 90 | 1007.3 |
| 20260506134534 | 5 | 35 | 6.4 | 17.7 | 0.13 | 1.70 | 1.40 | 91 | 1007.4 |
| 20260506133029 | 5 | 348 | 4.8 | 16.1 | 0.15 | 1.68 | 1.37 | 90 | 1007.3 |
| 20260506131534 | 6 | 37 | 6.4 | 17.7 | 0.18 | 1.65 | 1.35 | 90 | 1007.2 |
| 20260506130025 | 5 | 45 | 4.8 | 14.5 | 0.18 | 1.60 | 1.30 | 90 | 1007.3 |
| 20260506124523 | 5 | 35 | 11.3 | 19.3 | 0.23 | 1.57 | 1.27 | 90 | 1007.5 |
| 20260506123033 | 6 | 36 | 6.4 | 16.1 | 0.20 | 1.52 | 1.22 | 90 | 1007.6 |
| 20260506121518 | 6 | 9 | 11.3 | 20.9 | 0.23 | 1.45 | 1.17 | 91 | 1007.3 |
| 20260506120024 | 6 | 26 | 6.4 | 19.3 | 0.23 | 1.42 | 1.12 | 90 | 1007.0 |
| 20260506114519 | 6 | 46 | 8.0 | 20.9 | 0.20 | 1.35 | 1.04 | 90 | 1006.9 |
| 20260506113115 | 6 | 51 | 14.5 | 20.9 | 0.23 | 1.32 | 1.02 | 90 | 1007.1 |
| 20260506111509 | 6 | 38 | 9.7 | 17.7 | 0.25 | 1.24 | 0.94 | 91 | 1007.1 |
| 20260506110008 | 6 | 25 | 11.3 | 20.9 | 0.25 | 1.17 | 0.86 | 90 | 1007.0 |
| 20260506104507 | 6 | 52 | 14.5 | 22.5 | 0.28 | 1.14 | 0.84 | 90 | 1006.9 |
| 20260506103003 | 6 | 340 | 12.9 | 22.5 | 0.28 | 1.09 | 0.79 | 90 | 1007.2 |
| 20260506101601 | 6 | 27 | 6.4 | 20.9 | 0.20 | 0.99 | 0.69 | 91 | 1007.1 |
| 20260506100108 | 7 | 11 | 11.3 | 25.7 | 0.18 | 0.91 | 0.61 | 91 | 1006.8 |
| 20260506094603 | 7 | 36 | 14.5 | 22.5 | 0.25 | 0.86 | 0.56 | 90 | 1006.6 |
| 20260506093052 | 7 | 45 | 16.1 | 25.7 | 0.25 | 0.81 | 0.51 | 90 | 1006.6 |
| 20260506091549 | 7 | 34 | 11.3 | 25.7 | 0.25 | 0.79 | 0.48 | 90 | 1006.7 |
| 20260506090046 | 7 | 67 | 8.0 | 20.9 | 0.28 | 0.71 | 0.43 | 90 | 1007.0 |
| 20260506084546 | 7 | 33 | 6.4 | 25.7 | 0.23 | 0.61 | 0.30 | 90 | 1007.1 |
| 20260506083041 | 8 | 49 | 11.3 | 17.7 | 0.20 | 0.56 | 0.25 | 90 | 1007.1 |
| 20260506081541 | 8 | 319 | 6.4 | 14.5 | 0.20 | 0.53 | 0.23 | 90 | 1007.6 |